createdAt,value
2017-04-30T00:00:12.351Z,45.80
2017-04-30T00:01:12.496Z,45.80
2017-04-30T00:02:12.516Z,45.90
2017-04-30T00:03:12.257Z,45.80
2017-04-30T00:04:14.626Z,45.90
2017-04-30T00:05:12.434Z,45.90
2017-04-30T00:06:13.639Z,45.90
2017-04-30T00:07:13.368Z,45.90
2017-04-30T00:08:12.610Z,45.80
2017-04-30T00:09:14.683Z,45.90
2017-04-30T00:10:10.084Z,is
2017-04-30T00:11:12.196Z,45.90
2017-04-30T00:12:12.737Z,45.80
2017-04-30T00:13:12.597Z,45.90
2017-04-30T00:14:12.413Z,46.00
2017-04-30T00:15:11.936Z,46.00
2017-04-30T00:16:12.483Z,45.90
2017-04-30T00:17:11.815Z,45.90
2017-04-30T00:18:14.473Z,45.90
2017-04-30T00:19:12.095Z,45.90
2017-04-30T00:20:12.820Z,45.90
2017-04-30T00:21:12.496Z,46.00
2017-04-30T00:22:11.418Z,45.90
2017-04-30T00:23:10.150Z,is
2017-04-30T00:24:10.443Z,is
2017-04-30T00:25:12.886Z,45.90
2017-04-30T00:26:11.962Z,46.00
2017-04-30T00:27:11.996Z,45.90
2017-04-30T00:28:12.434Z,46.00
2017-04-30T00:29:12.368Z,46.00
2017-04-30T00:30:13.301Z,46.00
2017-04-30T00:31:13.200Z,46.00
2017-04-30T00:32:15.055Z,46.00
2017-04-30T00:33:13.777Z,46.00
2017-04-30T00:34:11.977Z,45.90
2017-04-30T00:35:12.284Z,46.20
2017-04-30T00:36:12.486Z,45.90
2017-04-30T00:37:11.501Z,46.00
2017-04-30T00:38:12.946Z,46.10
2017-04-30T00:39:12.970Z,46.10
2017-04-30T00:40:13.065Z,46.00
2017-04-30T00:41:14.265Z,46.00
2017-04-30T00:42:12.646Z,46.00
2017-04-30T00:43:11.731Z,46.00
2017-04-30T00:44:10.575Z,is
2017-04-30T00:45:12.114Z,46.00
2017-04-30T00:46:14.946Z,46.10
2017-04-30T00:47:12.891Z,46.00
2017-04-30T00:48:10.009Z,is
2017-04-30T00:49:12.801Z,45.90
2017-04-30T00:50:13.071Z,45.90
2017-04-30T00:51:12.649Z,45.90
2017-04-30T00:52:12.797Z,45.90
2017-04-30T00:53:12.707Z,46.10
2017-04-30T00:54:12.461Z,46.20
2017-04-30T00:55:11.428Z,46.10
2017-04-30T00:56:11.646Z,46.10
2017-04-30T00:57:12.577Z,46.10
2017-04-30T00:58:11.497Z,46.20
2017-04-30T00:59:11.685Z,46.00
2017-04-30T01:00:13.318Z,46.10
2017-04-30T01:01:13.309Z,46.10
2017-04-30T01:02:12.916Z,46.10
2017-04-30T01:03:12.267Z,46.00
2017-04-30T01:04:12.779Z,46.10
2017-04-30T01:05:12.682Z,46.10
2017-04-30T01:06:12.217Z,46.10
2017-04-30T01:07:12.911Z,46.20
2017-04-30T01:08:11.932Z,46.20
2017-04-30T01:09:13.142Z,46.20
2017-04-30T01:10:13.019Z,46.20
2017-04-30T01:11:12.719Z,46.20
2017-04-30T01:12:12.607Z,46.20
2017-04-30T01:13:12.188Z,46.20
2017-04-30T01:14:12.398Z,46.20
2017-04-30T01:15:11.460Z,46.20
2017-04-30T01:16:11.595Z,46.20
2017-04-30T01:17:13.438Z,46.30
2017-04-30T01:18:10.426Z,is
2017-04-30T01:19:12.579Z,46.40
2017-04-30T01:20:15.216Z,46.30
2017-04-30T01:21:12.629Z,46.30
2017-04-30T01:22:12.010Z,46.40
2017-04-30T01:23:14.162Z,46.40
2017-04-30T01:24:13.094Z,46.50
2017-04-30T01:25:10.114Z,is
2017-04-30T01:26:11.625Z,46.50
2017-04-30T01:27:11.895Z,46.60
2017-04-30T01:28:13.219Z,46.50
2017-04-30T01:29:13.005Z,46.50
2017-04-30T01:30:12.047Z,46.50
2017-04-30T01:31:12.731Z,46.50
2017-04-30T01:32:12.638Z,46.60
2017-04-30T01:33:10.312Z,is
2017-04-30T01:34:12.346Z,46.60
2017-04-30T01:35:12.466Z,46.60
2017-04-30T01:36:10.283Z,is
2017-04-30T01:37:11.495Z,46.50
2017-04-30T01:38:14.187Z,46.70
2017-04-30T01:39:13.864Z,46.60
2017-04-30T01:40:12.470Z,46.60
2017-04-30T01:41:11.525Z,46.60
2017-04-30T01:42:11.664Z,46.40
2017-04-30T01:43:12.908Z,46.60
2017-04-30T01:44:11.855Z,46.60
2017-04-30T01:45:11.956Z,46.60
2017-04-30T01:46:12.633Z,46.70
2017-04-30T01:47:11.683Z,46.60
2017-04-30T01:48:11.860Z,46.70
2017-04-30T01:49:13.266Z,46.70
2017-04-30T01:50:12.302Z,46.70
2017-04-30T01:51:12.976Z,46.70
2017-04-30T01:52:12.816Z,46.70
2017-04-30T01:53:12.654Z,46.70
2017-04-30T01:54:11.733Z,46.70
2017-04-30T01:55:11.745Z,46.60
2017-04-30T01:56:13.623Z,46.60
2017-04-30T01:57:14.740Z,46.70
2017-04-30T01:58:12.447Z,46.70
2017-04-30T01:59:12.422Z,46.60
2017-04-30T02:00:11.511Z,46.60
2017-04-30T02:01:12.091Z,46.90
2017-04-30T02:02:09.359Z,is
2017-04-30T02:03:14.388Z,47.10
2017-04-30T02:04:12.443Z,47.20
2017-04-30T02:05:12.236Z,47.20
2017-04-30T02:06:11.513Z,47.00
2017-04-30T02:07:13.784Z,47.30
2017-04-30T02:08:13.586Z,46.90
2017-04-30T02:09:13.843Z,46.90
2017-04-30T02:10:12.564Z,46.90
2017-04-30T02:11:12.069Z,47.00
2017-04-30T02:12:12.013Z,46.80
2017-04-30T02:13:12.049Z,46.90
2017-04-30T02:14:10.757Z,is
2017-04-30T02:15:13.070Z,47.00
2017-04-30T02:16:12.916Z,47.00
2017-04-30T02:17:12.969Z,46.80
2017-04-30T02:18:12.887Z,46.80
2017-04-30T02:19:10.497Z,is
2017-04-30T02:20:12.460Z,46.90
2017-04-30T02:21:11.904Z,46.80
2017-04-30T02:22:12.440Z,46.80
2017-04-30T02:23:10.142Z,is
2017-04-30T02:24:12.009Z,46.90
2017-04-30T02:25:12.480Z,46.80
2017-04-30T02:26:11.510Z,46.90
2017-04-30T02:27:12.546Z,46.80
2017-04-30T02:28:13.426Z,46.90
2017-04-30T02:29:12.878Z,46.70
2017-04-30T02:30:12.137Z,46.70
2017-04-30T02:31:11.764Z,46.70
2017-04-30T02:32:12.434Z,46.70
2017-04-30T02:33:11.602Z,46.70
2017-04-30T02:34:12.365Z,46.70
2017-04-30T02:35:13.415Z,46.70
2017-04-30T02:36:12.256Z,46.70
2017-04-30T02:37:13.449Z,46.70
2017-04-30T02:38:11.940Z,46.70
2017-04-30T02:39:13.875Z,46.70
2017-04-30T02:40:13.487Z,46.70
2017-04-30T02:41:12.706Z,46.60
2017-04-30T02:42:12.559Z,46.60
2017-04-30T02:43:12.485Z,46.60
2017-04-30T02:44:12.245Z,46.60
2017-04-30T02:45:12.462Z,46.60
2017-04-30T02:46:13.068Z,46.70
2017-04-30T02:47:13.535Z,46.70
2017-04-30T02:48:10.062Z,is
2017-04-30T02:49:12.269Z,46.60
2017-04-30T02:50:13.925Z,46.70
2017-04-30T02:51:12.940Z,46.60
2017-04-30T02:52:10.353Z,is
2017-04-30T02:53:12.459Z,46.50
2017-04-30T02:54:12.516Z,46.50
2017-04-30T02:55:12.132Z,46.60
2017-04-30T02:56:12.408Z,46.50
2017-04-30T02:57:12.191Z,46.40
2017-04-30T02:58:11.989Z,46.50
2017-04-30T02:59:13.151Z,46.50
2017-04-30T03:00:12.845Z,46.40
2017-04-30T03:01:13.204Z,46.30
2017-04-30T03:02:12.249Z,46.40
2017-04-30T03:03:12.415Z,46.40
2017-04-30T03:04:11.523Z,46.30
2017-04-30T03:05:14.490Z,46.40
2017-04-30T03:06:14.144Z,46.50
2017-04-30T03:07:12.260Z,46.40
2017-04-30T03:08:12.450Z,46.30
2017-04-30T03:09:12.244Z,46.30
2017-04-30T03:10:12.322Z,46.40
2017-04-30T03:11:13.236Z,46.40
2017-04-30T03:12:12.488Z,46.30
2017-04-30T03:13:11.819Z,46.40
2017-04-30T03:14:11.963Z,46.30
2017-04-30T03:15:12.975Z,46.40
2017-04-30T03:16:13.718Z,46.30
2017-04-30T03:17:12.422Z,46.40
2017-04-30T03:18:12.236Z,46.40
2017-04-30T03:19:12.230Z,46.30
2017-04-30T03:20:12.954Z,46.50
2017-04-30T03:21:11.805Z,46.30
2017-04-30T03:22:11.839Z,46.30
2017-04-30T03:23:12.424Z,46.20
2017-04-30T03:24:12.317Z,46.40
2017-04-30T03:25:09.676Z,is
2017-04-30T03:26:13.418Z,46.40
2017-04-30T03:27:12.014Z,46.30
2017-04-30T03:28:10.658Z,is
2017-04-30T03:29:13.770Z,46.50
2017-04-30T03:30:12.962Z,46.40
2017-04-30T03:31:12.693Z,46.40
2017-04-30T03:32:12.259Z,46.30
2017-04-30T03:33:12.770Z,46.30
2017-04-30T03:34:12.430Z,46.40
2017-04-30T03:35:12.241Z,46.40
2017-04-30T03:36:13.103Z,46.50
2017-04-30T03:37:12.812Z,46.30
2017-04-30T03:38:11.882Z,46.40
2017-04-30T03:39:13.598Z,47.00
2017-04-30T03:40:11.703Z,46.30
2017-04-30T03:41:11.704Z,46.40
2017-04-30T03:42:13.982Z,46.40
2017-04-30T03:43:11.981Z,46.30
2017-04-30T03:44:12.948Z,46.40
2017-04-30T03:45:12.695Z,46.40
2017-04-30T03:46:11.728Z,46.40
2017-04-30T03:47:12.804Z,46.40
2017-04-30T03:48:12.579Z,46.50
2017-04-30T03:49:09.977Z,is
2017-04-30T03:50:13.025Z,46.40
2017-04-30T03:51:09.240Z,is
2017-04-30T03:52:13.213Z,46.40
2017-04-30T03:53:11.010Z,is
2017-04-30T03:54:13.919Z,46.50
2017-04-30T03:55:12.726Z,46.40
2017-04-30T03:56:13.041Z,46.40
2017-04-30T03:57:09.554Z,is
2017-04-30T03:58:12.720Z,46.60
2017-04-30T03:59:12.644Z,46.60
2017-04-30T04:00:11.728Z,46.50
2017-04-30T04:01:12.006Z,46.40
2017-04-30T04:02:15.068Z,46.50
2017-04-30T04:03:12.933Z,46.40
2017-04-30T04:04:12.044Z,46.50
2017-04-30T04:05:10.545Z,is
2017-04-30T04:06:12.291Z,46.50
2017-04-30T04:07:13.111Z,46.60
2017-04-30T04:08:09.481Z,is
2017-04-30T04:09:13.330Z,46.50
2017-04-30T04:10:13.841Z,46.60
2017-04-30T04:11:12.655Z,46.60
2017-04-30T04:12:12.437Z,46.60
2017-04-30T04:13:12.310Z,46.40
2017-04-30T04:14:13.210Z,46.60
2017-04-30T04:15:13.136Z,46.60
2017-04-30T04:16:12.325Z,46.50
2017-04-30T04:17:12.634Z,46.50
2017-04-30T04:18:12.576Z,46.70
2017-04-30T04:19:12.430Z,46.60
2017-04-30T04:20:11.426Z,46.60
2017-04-30T04:21:12.246Z,46.70
2017-04-30T04:22:12.836Z,46.60
2017-04-30T04:23:12.991Z,46.60
2017-04-30T04:24:14.488Z,46.60
2017-04-30T04:25:17.413Z,46.60
2017-04-30T04:26:16.405Z,46.70
2017-04-30T04:27:11.242Z,46.60
2017-04-30T04:28:13.056Z,46.60
2017-04-30T04:29:12.236Z,46.60
2017-04-30T04:30:12.946Z,46.60
2017-04-30T04:31:12.717Z,46.60
2017-04-30T04:32:13.085Z,46.70
2017-04-30T04:33:14.165Z,46.60
2017-04-30T04:34:14.629Z,46.70
2017-04-30T04:35:11.572Z,46.60
2017-04-30T04:36:13.535Z,46.70
2017-04-30T04:37:12.657Z,46.70
2017-04-30T04:38:09.128Z,is
2017-04-30T04:39:13.005Z,46.60
2017-04-30T04:40:11.974Z,46.60
2017-04-30T04:41:13.167Z,46.60
2017-04-30T04:42:13.877Z,46.70
2017-04-30T04:43:12.492Z,46.60
2017-04-30T04:44:11.539Z,46.60
2017-04-30T04:45:11.959Z,46.60
2017-04-30T04:46:12.475Z,46.50
2017-04-30T04:47:13.395Z,46.60
2017-04-30T04:48:12.963Z,46.60
2017-04-30T04:49:14.272Z,46.10
2017-04-30T04:50:10.174Z,is
2017-04-30T04:51:11.900Z,46.60
2017-04-30T04:52:13.163Z,46.70
2017-04-30T04:53:13.090Z,46.70
2017-04-30T04:54:10.521Z,is
2017-04-30T04:55:13.204Z,46.60
2017-04-30T04:56:12.248Z,46.50
2017-04-30T04:57:10.730Z,is
2017-04-30T04:58:12.278Z,46.60
2017-04-30T04:59:11.350Z,is
2017-04-30T05:00:12.219Z,46.50
2017-04-30T05:01:12.340Z,46.60
2017-04-30T05:02:12.440Z,46.60
2017-04-30T05:03:12.187Z,46.50
2017-04-30T05:04:13.841Z,46.60
2017-04-30T05:05:12.520Z,46.50
2017-04-30T05:06:12.012Z,46.50
2017-04-30T05:07:12.741Z,46.60
2017-04-30T05:08:11.745Z,46.60
2017-04-30T05:09:11.949Z,46.50
2017-04-30T05:10:12.872Z,46.60
2017-04-30T05:11:09.899Z,is
2017-04-30T05:12:12.252Z,46.50
2017-04-30T05:13:13.605Z,46.60
2017-04-30T05:14:11.691Z,46.50
2017-04-30T05:15:12.848Z,46.60
2017-04-30T05:16:13.797Z,46.60
2017-04-30T05:17:12.277Z,46.50
2017-04-30T05:18:12.684Z,46.60
2017-04-30T05:19:13.327Z,46.50
2017-04-30T05:20:12.156Z,46.50
2017-04-30T05:21:12.350Z,46.60
2017-04-30T05:22:13.026Z,46.60
2017-04-30T05:23:12.305Z,46.60
2017-04-30T05:24:13.171Z,46.60
2017-04-30T05:25:10.115Z,is
2017-04-30T05:26:12.398Z,46.60
2017-04-30T05:27:12.275Z,46.60
2017-04-30T05:28:12.218Z,46.50
2017-04-30T05:29:10.762Z,is
2017-04-30T05:30:12.636Z,46.60
2017-04-30T05:31:11.870Z,46.70
2017-04-30T05:32:12.164Z,46.70
2017-04-30T05:33:10.736Z,is
2017-04-30T05:34:13.908Z,46.90
2017-04-30T05:35:12.186Z,47.00
2017-04-30T05:36:13.210Z,47.10
2017-04-30T05:37:13.321Z,47.20
2017-04-30T05:38:12.478Z,47.10
2017-04-30T05:39:10.006Z,is
2017-04-30T05:40:11.584Z,47.20
2017-04-30T05:41:12.436Z,47.20
2017-04-30T05:42:12.664Z,47.20
2017-04-30T05:43:12.271Z,47.30
2017-04-30T05:44:12.940Z,47.20
2017-04-30T05:45:12.229Z,47.20
2017-04-30T05:46:13.010Z,47.20
2017-04-30T05:47:12.960Z,47.30
2017-04-30T05:48:11.996Z,47.20
2017-04-30T05:49:12.743Z,47.20
2017-04-30T05:50:11.755Z,47.20
2017-04-30T05:51:12.326Z,47.20
2017-04-30T05:52:13.252Z,47.30
2017-04-30T05:53:12.562Z,47.20
2017-04-30T05:54:11.634Z,47.20
2017-04-30T05:55:11.869Z,47.20
2017-04-30T05:56:12.694Z,47.20
2017-04-30T05:57:12.666Z,47.20
2017-04-30T05:58:13.260Z,47.20
2017-04-30T05:59:13.971Z,47.10
2017-04-30T06:00:12.666Z,47.20
2017-04-30T06:01:11.576Z,47.20
2017-04-30T06:02:12.252Z,47.10
2017-04-30T06:03:12.663Z,47.20
2017-04-30T06:04:10.653Z,is
2017-04-30T06:05:13.340Z,47.20
2017-04-30T06:06:13.034Z,47.20
2017-04-30T06:07:13.069Z,47.20
2017-04-30T06:08:12.305Z,47.20
2017-04-30T06:09:13.026Z,47.20
2017-04-30T06:10:14.021Z,47.30
2017-04-30T06:11:12.029Z,47.20
2017-04-30T06:12:13.927Z,47.30
2017-04-30T06:13:10.450Z,is
2017-04-30T06:14:12.025Z,47.20
2017-04-30T06:15:13.096Z,47.20
2017-04-30T06:16:12.252Z,47.40
2017-04-30T06:17:10.792Z,is
2017-04-30T06:18:11.568Z,47.20
2017-04-30T06:19:11.728Z,47.20
2017-04-30T06:20:11.784Z,47.20
2017-04-30T06:21:11.890Z,47.20
2017-04-30T06:22:12.478Z,47.20
2017-04-30T06:23:12.127Z,47.20
2017-04-30T06:24:12.703Z,47.10
2017-04-30T06:25:13.351Z,47.20
2017-04-30T06:26:14.215Z,47.20
2017-04-30T06:27:15.912Z,47.20
2017-04-30T06:28:14.728Z,47.20
2017-04-30T06:29:12.480Z,47.00
2017-04-30T06:30:11.900Z,47.10
2017-04-30T06:31:12.506Z,47.00
2017-04-30T06:32:11.747Z,47.10
2017-04-30T06:33:11.997Z,47.00
2017-04-30T06:34:12.243Z,47.00
2017-04-30T06:35:12.518Z,46.90
2017-04-30T06:36:11.701Z,47.00
2017-04-30T06:37:13.317Z,47.10
2017-04-30T06:38:12.971Z,47.10
2017-04-30T06:39:11.203Z,is
2017-04-30T06:40:12.631Z,47.10
2017-04-30T06:41:13.689Z,47.00
2017-04-30T06:42:11.696Z,47.00
2017-04-30T06:43:12.451Z,47.10
2017-04-30T06:44:12.032Z,47.20
2017-04-30T06:45:12.639Z,47.10
2017-04-30T06:46:12.416Z,47.10
2017-04-30T06:47:12.252Z,47.10
2017-04-30T06:48:12.865Z,47.10
2017-04-30T06:49:12.510Z,47.20
2017-04-30T06:50:13.256Z,47.20
2017-04-30T06:51:10.813Z,is
2017-04-30T06:52:12.463Z,47.20
2017-04-30T06:53:12.455Z,47.10
2017-04-30T06:54:12.182Z,47.20
2017-04-30T06:55:12.444Z,47.10
2017-04-30T06:56:11.568Z,47.00
2017-04-30T06:57:11.981Z,47.10
2017-04-30T06:58:13.015Z,47.20
2017-04-30T06:59:12.106Z,47.10
2017-04-30T07:00:12.626Z,47.10
2017-04-30T07:01:13.110Z,46.40
2017-04-30T07:02:13.807Z,47.10
2017-04-30T07:03:11.797Z,47.20
2017-04-30T07:04:12.685Z,47.20
2017-04-30T07:05:12.769Z,47.20
2017-04-30T07:06:10.428Z,is
2017-04-30T07:07:12.426Z,47.20
2017-04-30T07:08:14.459Z,47.10
2017-04-30T07:09:12.280Z,47.20
2017-04-30T07:10:12.242Z,47.20
2017-04-30T07:11:12.455Z,47.40
2017-04-30T07:12:12.298Z,47.20
2017-04-30T07:13:13.001Z,47.10
2017-04-30T07:14:12.430Z,47.20
2017-04-30T07:15:12.271Z,47.10
2017-04-30T07:16:14.171Z,47.20
2017-04-30T07:17:12.668Z,47.10
2017-04-30T07:18:12.911Z,47.10
2017-04-30T07:19:12.674Z,47.10
2017-04-30T07:20:11.781Z,47.00
2017-04-30T07:21:10.649Z,is
2017-04-30T07:22:14.138Z,47.20
2017-04-30T07:23:12.275Z,47.20
2017-04-30T07:24:13.330Z,47.20
2017-04-30T07:25:12.509Z,47.10
2017-04-30T07:26:13.335Z,47.10
2017-04-30T07:27:11.906Z,47.10
2017-04-30T07:28:12.678Z,47.10
2017-04-30T07:29:09.804Z,is
2017-04-30T07:30:12.401Z,47.20
2017-04-30T07:31:12.036Z,47.20
2017-04-30T07:32:12.248Z,47.20
2017-04-30T07:33:12.408Z,47.20
2017-04-30T07:34:12.077Z,47.20
2017-04-30T07:35:12.171Z,47.20
2017-04-30T07:36:12.865Z,47.20
2017-04-30T07:37:12.054Z,47.20
2017-04-30T07:38:12.205Z,47.20
2017-04-30T07:39:12.686Z,47.20
2017-04-30T07:40:11.895Z,47.20
2017-04-30T07:41:12.471Z,47.20
2017-04-30T07:42:12.266Z,47.30
2017-04-30T07:43:12.912Z,47.20
2017-04-30T07:44:13.602Z,47.20
2017-04-30T07:45:12.031Z,47.20
2017-04-30T07:46:12.817Z,47.30
2017-04-30T07:47:10.417Z,is
2017-04-30T07:48:10.636Z,is
2017-04-30T07:49:12.660Z,47.30
2017-04-30T07:50:12.602Z,47.30
2017-04-30T07:51:12.023Z,47.20
2017-04-30T07:52:13.023Z,47.20
2017-04-30T07:53:12.636Z,47.20
2017-04-30T07:54:12.483Z,47.20
2017-04-30T07:55:10.135Z,is
2017-04-30T07:56:12.640Z,47.30
2017-04-30T07:57:12.065Z,47.20
2017-04-30T07:58:12.283Z,47.30
2017-04-30T07:59:12.626Z,47.30
2017-04-30T08:00:14.639Z,47.30
2017-04-30T08:01:11.852Z,47.30
2017-04-30T08:02:12.682Z,47.20
2017-04-30T08:03:15.198Z,47.30
2017-04-30T08:04:12.168Z,47.20
2017-04-30T08:05:13.529Z,47.20
2017-04-30T08:06:10.248Z,is
2017-04-30T08:07:08.744Z,is
2017-04-30T08:08:12.850Z,47.30
2017-04-30T08:09:11.965Z,47.30
2017-04-30T08:10:12.732Z,47.30
2017-04-30T08:11:11.770Z,47.20
2017-04-30T08:12:11.845Z,47.20
2017-04-30T08:13:13.688Z,47.30
2017-04-30T08:14:11.843Z,47.30
2017-04-30T08:15:11.961Z,47.30
2017-04-30T08:16:12.250Z,47.20
2017-04-30T08:17:13.831Z,47.30
2017-04-30T08:18:11.835Z,47.20
2017-04-30T08:19:12.665Z,47.20
2017-04-30T08:20:13.280Z,47.20
2017-04-30T08:21:12.142Z,47.30
2017-04-30T08:22:12.503Z,47.20
2017-04-30T08:23:12.614Z,47.30
2017-04-30T08:24:12.218Z,47.20
2017-04-30T08:25:13.191Z,47.40
2017-04-30T08:26:13.638Z,47.30
2017-04-30T08:27:12.501Z,47.30
2017-04-30T08:28:12.251Z,47.40
2017-04-30T08:29:14.020Z,47.30
2017-04-30T08:30:13.859Z,47.20
2017-04-30T08:31:11.922Z,47.30
2017-04-30T08:32:12.522Z,47.90
2017-04-30T08:33:11.803Z,47.40
2017-04-30T08:34:12.661Z,47.30
2017-04-30T08:35:11.756Z,47.50
2017-04-30T08:36:12.688Z,47.60
2017-04-30T08:37:12.704Z,47.40
2017-04-30T08:38:11.724Z,47.50
2017-04-30T08:39:09.084Z,is
2017-04-30T08:40:13.186Z,47.60
2017-04-30T08:41:12.668Z,47.50
2017-04-30T08:42:11.552Z,47.60
2017-04-30T08:43:11.753Z,47.50
2017-04-30T08:44:13.933Z,47.60
2017-04-30T08:45:14.033Z,47.60
2017-04-30T08:46:12.603Z,47.60
2017-04-30T08:47:14.395Z,47.70
2017-04-30T08:48:08.497Z,is
2017-04-30T08:49:12.277Z,47.60
2017-04-30T08:50:13.553Z,47.70
2017-04-30T08:51:12.370Z,47.80
2017-04-30T08:52:12.652Z,47.70
2017-04-30T08:53:12.798Z,47.70
2017-04-30T08:54:12.663Z,47.80
2017-04-30T08:55:12.620Z,47.70
2017-04-30T08:56:13.052Z,47.80
2017-04-30T08:57:13.511Z,48.00
2017-04-30T08:58:12.348Z,48.50
2017-04-30T08:59:13.285Z,48.70
2017-04-30T09:00:13.015Z,49.00
2017-04-30T09:01:13.494Z,49.00
2017-04-30T09:02:11.544Z,49.40
2017-04-30T09:03:12.407Z,49.50
2017-04-30T09:04:12.319Z,49.70
2017-04-30T09:05:12.455Z,49.80
2017-04-30T09:06:12.330Z,50.00
2017-04-30T09:07:10.350Z,is
2017-04-30T09:08:12.742Z,50.00
2017-04-30T09:09:11.745Z,49.70
2017-04-30T09:10:12.004Z,49.60
2017-04-30T09:11:12.974Z,49.50
2017-04-30T09:12:12.650Z,49.50
2017-04-30T09:13:11.667Z,49.30
2017-04-30T09:14:11.778Z,49.30
2017-04-30T09:15:12.351Z,49.40
2017-04-30T09:16:13.097Z,49.30
2017-04-30T09:17:13.057Z,49.40
2017-04-30T09:18:12.707Z,49.20
2017-04-30T09:19:12.020Z,49.20
2017-04-30T09:20:13.217Z,49.00
2017-04-30T09:21:13.908Z,49.00
2017-04-30T09:22:12.577Z,48.90
2017-04-30T09:23:11.501Z,48.80
2017-04-30T09:24:11.556Z,48.70
2017-04-30T09:25:11.513Z,48.70
2017-04-30T09:26:12.258Z,48.60
2017-04-30T09:27:14.798Z,48.60
2017-04-30T09:28:10.357Z,is
2017-04-30T09:29:12.451Z,48.50
2017-04-30T09:30:12.254Z,48.40
2017-04-30T09:31:10.198Z,is
2017-04-30T09:32:11.727Z,48.30
2017-04-30T09:33:12.727Z,is
2017-04-30T09:34:12.044Z,48.00
2017-04-30T09:35:13.041Z,48.30
2017-04-30T09:36:13.188Z,48.20
2017-04-30T09:37:12.482Z,48.20
2017-04-30T09:38:10.357Z,is
2017-04-30T09:39:12.439Z,48.10
2017-04-30T09:40:12.018Z,47.90
2017-04-30T09:41:12.717Z,47.90
2017-04-30T09:42:11.753Z,47.70
2017-04-30T09:43:11.916Z,48.00
2017-04-30T09:44:12.050Z,47.80
2017-04-30T09:45:10.850Z,is
2017-04-30T09:46:12.826Z,47.70
2017-04-30T09:47:12.013Z,47.60
2017-04-30T09:48:13.115Z,47.70
2017-04-30T09:49:13.898Z,47.70
2017-04-30T09:50:12.595Z,47.50
2017-04-30T09:51:11.785Z,47.40
2017-04-30T09:52:11.909Z,47.30
2017-04-30T09:53:12.035Z,47.20
2017-04-30T09:54:12.945Z,47.30
2017-04-30T09:55:12.972Z,47.10
2017-04-30T09:56:12.726Z,47.10
2017-04-30T09:57:13.315Z,46.90
2017-04-30T09:58:12.467Z,46.90
2017-04-30T09:59:11.669Z,46.90
2017-04-30T10:00:12.442Z,47.10
2017-04-30T10:01:11.525Z,47.00
2017-04-30T10:02:12.257Z,46.80
2017-04-30T10:03:12.536Z,47.00
2017-04-30T10:04:12.270Z,47.00
2017-04-30T10:05:12.430Z,47.00
2017-04-30T10:06:10.186Z,is
2017-04-30T10:07:12.483Z,46.50
2017-04-30T10:08:12.390Z,46.40
2017-04-30T10:09:13.143Z,46.40
2017-04-30T10:10:12.922Z,46.30
2017-04-30T10:11:12.943Z,45.90
2017-04-30T10:12:14.133Z,45.80
2017-04-30T10:13:13.237Z,45.40
2017-04-30T10:14:15.004Z,45.30
2017-04-30T10:15:13.291Z,45.50
2017-04-30T10:16:12.443Z,45.60
2017-04-30T10:17:11.647Z,45.50
2017-04-30T10:18:11.845Z,45.40
2017-04-30T10:19:12.473Z,45.20
2017-04-30T10:20:11.612Z,44.70
2017-04-30T10:21:12.786Z,45.00
2017-04-30T10:22:14.520Z,45.20
2017-04-30T10:23:10.215Z,is
2017-04-30T10:24:15.175Z,44.90
2017-04-30T10:25:12.436Z,44.50
2017-04-30T10:26:11.958Z,44.40
2017-04-30T10:27:10.627Z,is
2017-04-30T10:28:12.491Z,44.30
2017-04-30T10:29:11.671Z,44.20
2017-04-30T10:30:11.975Z,44.20
2017-04-30T10:31:12.277Z,44.20
2017-04-30T10:32:16.217Z,44.40
2017-04-30T10:33:13.035Z,44.70
2017-04-30T10:34:12.653Z,44.70
2017-04-30T10:35:14.629Z,44.30
2017-04-30T10:36:12.421Z,44.50
2017-04-30T10:37:15.306Z,44.50
2017-04-30T10:38:13.096Z,44.50
2017-04-30T10:39:11.647Z,44.60
2017-04-30T10:40:12.268Z,44.70
2017-04-30T10:41:13.065Z,44.60
2017-04-30T10:42:13.213Z,44.70
2017-04-30T10:43:14.567Z,44.70
2017-04-30T10:44:12.444Z,44.60
2017-04-30T10:45:13.487Z,44.70
2017-04-30T10:46:13.895Z,44.70
2017-04-30T10:47:14.707Z,44.70
2017-04-30T10:48:12.290Z,44.30
2017-04-30T10:49:13.044Z,41.60
2017-04-30T10:50:14.531Z,37.80
2017-04-30T10:51:11.704Z,36.20
2017-04-30T10:52:12.412Z,35.00
2017-04-30T10:53:14.063Z,34.80
2017-04-30T10:54:12.342Z,34.90
2017-04-30T10:55:12.654Z,34.70
2017-04-30T10:56:11.837Z,34.50
2017-04-30T10:57:12.101Z,34.00
2017-04-30T10:58:14.488Z,33.90
2017-04-30T10:59:11.334Z,33.70
2017-04-30T11:00:12.455Z,33.50
2017-04-30T11:01:08.798Z,is
2017-04-30T11:02:12.661Z,32.90
2017-04-30T11:03:12.478Z,32.80
2017-04-30T11:04:11.543Z,33.30
2017-04-30T11:05:11.772Z,33.30
2017-04-30T11:06:12.103Z,32.70
2017-04-30T11:07:12.311Z,33.40
2017-04-30T11:08:13.297Z,33.70
2017-04-30T11:09:10.731Z,is
2017-04-30T11:10:11.440Z,33.90
2017-04-30T11:11:13.229Z,34.20
2017-04-30T11:12:13.249Z,33.50
2017-04-30T11:13:12.467Z,32.80
2017-04-30T11:14:12.686Z,32.80
2017-04-30T11:15:11.565Z,is
2017-04-30T11:16:12.730Z,33.00
2017-04-30T11:17:12.510Z,33.50
2017-04-30T11:18:12.816Z,33.30
2017-04-30T11:19:11.790Z,33.40
2017-04-30T11:20:12.709Z,32.70
2017-04-30T11:21:12.244Z,32.70
2017-04-30T11:22:12.702Z,32.80
2017-04-30T11:23:12.842Z,32.10
2017-04-30T11:24:12.674Z,31.70
2017-04-30T11:25:12.948Z,31.20
2017-04-30T11:26:13.271Z,31.40
2017-04-30T11:27:13.617Z,31.50
2017-04-30T11:28:11.795Z,30.90
2017-04-30T11:29:12.125Z,30.40
2017-04-30T11:30:13.143Z,30.40
2017-04-30T11:31:12.475Z,31.00
2017-04-30T11:32:12.648Z,31.80
2017-04-30T11:33:12.259Z,31.50
2017-04-30T11:34:10.253Z,is
2017-04-30T11:35:12.277Z,30.60
2017-04-30T11:36:13.288Z,30.50
2017-04-30T11:37:12.632Z,31.70
2017-04-30T11:38:13.143Z,32.20
2017-04-30T11:39:12.791Z,31.60
2017-04-30T11:40:11.866Z,32.60
2017-04-30T11:41:12.787Z,32.90
2017-04-30T11:42:14.555Z,33.30
2017-04-30T11:43:11.472Z,35.10
2017-04-30T11:44:12.292Z,35.00
2017-04-30T11:45:13.575Z,33.70
2017-04-30T11:46:10.570Z,is
2017-04-30T11:47:14.024Z,33.20
2017-04-30T11:48:12.703Z,34.00
2017-04-30T11:49:11.706Z,32.80
2017-04-30T11:50:11.828Z,32.70
2017-04-30T11:51:13.000Z,32.60
2017-04-30T11:52:11.939Z,32.60
2017-04-30T11:53:10.736Z,is
2017-04-30T11:54:12.504Z,32.70
2017-04-30T11:55:12.822Z,33.00
2017-04-30T11:56:12.678Z,32.70
2017-04-30T11:57:12.298Z,32.90
2017-04-30T11:58:13.601Z,32.80
2017-04-30T11:59:11.879Z,32.70
2017-04-30T12:00:12.192Z,32.70
2017-04-30T12:01:13.828Z,32.40
2017-04-30T12:02:12.771Z,31.20
2017-04-30T12:03:12.652Z,29.90
2017-04-30T12:04:11.862Z,30.10
2017-04-30T12:05:11.925Z,30.80
2017-04-30T12:06:13.351Z,31.20
2017-04-30T12:07:14.380Z,31.60
2017-04-30T12:08:12.649Z,31.70
2017-04-30T12:09:12.345Z,32.10
2017-04-30T12:10:12.841Z,31.50
2017-04-30T12:11:14.551Z,31.10
2017-04-30T12:12:12.280Z,32.10
2017-04-30T12:13:10.780Z,is
2017-04-30T12:14:14.096Z,32.50
2017-04-30T12:15:12.692Z,32.90
2017-04-30T12:16:12.283Z,32.80
2017-04-30T12:17:12.694Z,32.80
2017-04-30T12:18:11.834Z,32.90
2017-04-30T12:19:13.210Z,33.00
2017-04-30T12:20:12.872Z,33.00
2017-04-30T12:21:12.524Z,33.10
2017-04-30T12:22:14.141Z,33.20
2017-04-30T12:23:12.927Z,33.20
2017-04-30T12:24:12.565Z,33.60
2017-04-30T12:25:13.730Z,33.80
2017-04-30T12:26:11.773Z,33.70
2017-04-30T12:27:12.652Z,33.90
2017-04-30T12:28:12.269Z,34.00
2017-04-30T12:29:16.088Z,34.10
2017-04-30T12:30:12.685Z,34.20
2017-04-30T12:31:12.432Z,34.60
2017-04-30T12:32:11.413Z,34.30
2017-04-30T12:33:12.945Z,34.30
2017-04-30T12:34:15.538Z,34.20
2017-04-30T12:35:12.673Z,34.30
2017-04-30T12:36:13.210Z,34.40
2017-04-30T12:37:13.279Z,34.70
2017-04-30T12:38:12.635Z,34.70
2017-04-30T12:39:13.204Z,35.10
2017-04-30T12:40:14.266Z,35.70
2017-04-30T12:41:13.356Z,35.10
2017-04-30T12:42:13.461Z,35.30
2017-04-30T12:43:12.170Z,35.10
2017-04-30T12:44:11.710Z,35.10
2017-04-30T12:45:12.959Z,34.80
2017-04-30T12:46:13.055Z,30.10
2017-04-30T12:47:12.666Z,27.80
2017-04-30T12:48:11.740Z,27.60
2017-04-30T12:49:12.617Z,27.60
2017-04-30T12:50:11.749Z,27.50
2017-04-30T12:51:12.695Z,27.90
2017-04-30T12:52:12.498Z,27.90
2017-04-30T12:53:11.736Z,27.50
2017-04-30T12:54:12.807Z,27.50
2017-04-30T12:55:12.211Z,27.60
2017-04-30T12:56:12.414Z,28.00
2017-04-30T12:57:13.223Z,28.20
2017-04-30T12:58:12.255Z,27.80